createdAt,value
2022-09-22T00:04:36.825Z,9.20
2022-09-22T00:14:39.680Z,9.20
2022-09-22T00:24:42.006Z,9.00
2022-09-22T00:34:43.947Z,8.90
2022-09-22T00:44:46.841Z,8.90
2022-09-22T00:54:49.429Z,8.70
2022-09-22T01:04:54.766Z,8.60
2022-09-22T01:15:29.388Z,8.50
2022-09-22T01:26:05.885Z,8.40
2022-09-22T01:36:27.547Z,8.20
2022-09-22T01:46:41.889Z,8.30
2022-09-22T01:56:48.374Z,8.10
2022-09-22T02:07:00.409Z,8.00
2022-09-22T02:17:03.847Z,7.90
2022-09-22T02:27:16.445Z,7.90
2022-09-22T02:37:55.221Z,7.70
2022-09-22T02:48:20.024Z,7.60
2022-09-22T02:58:22.301Z,7.50
2022-09-22T03:08:24.264Z,7.50
2022-09-22T03:18:26.182Z,7.30
2022-09-22T03:28:28.507Z,7.40
2022-09-22T03:38:30.665Z,7.30
2022-09-22T03:48:33.582Z,7.20
2022-09-22T03:58:35.884Z,7.20
2022-09-22T04:08:38.085Z,7.00
2022-09-22T04:18:44.368Z,7.10
2022-09-22T04:28:46.923Z,7.00
2022-09-22T04:38:48.887Z,6.90
2022-09-22T04:48:51.082Z,6.90
2022-09-22T04:58:53.203Z,6.80
2022-09-22T05:08:55.309Z,6.70
2022-09-22T05:18:59.788Z,6.50
2022-09-22T05:29:02.030Z,6.60
2022-09-22T05:39:04.336Z,6.50
2022-09-22T05:49:06.735Z,6.60
2022-09-22T05:59:08.829Z,6.60
2022-09-22T06:09:10.827Z,6.70
2022-09-22T06:19:12.992Z,6.80
2022-09-22T06:29:15.330Z,6.90
2022-09-22T06:39:17.582Z,7.40
2022-09-22T06:49:20.873Z,7.60
2022-09-22T06:59:23.306Z,8.00
2022-09-22T07:09:26.711Z,8.40
2022-09-22T07:19:29.429Z,9.40
2022-09-22T07:29:31.461Z,9.60
2022-09-22T07:39:33.683Z,10.10
2022-09-22T07:49:35.724Z,10.40
2022-09-22T07:59:40.033Z,10.80
2022-09-22T08:09:43.108Z,11.10
2022-09-22T08:19:45.114Z,12.10
2022-09-22T08:29:47.012Z,12.50
2022-09-22T08:39:49.181Z,13.30
2022-09-22T08:50:12.949Z,13.70
2022-09-22T09:00:20.616Z,14.70
2022-09-22T09:10:30.173Z,15.10
2022-09-22T09:20:49.342Z,15.60
2022-09-22T09:30:54.898Z,16.20
2022-09-22T09:41:21.387Z,16.80
2022-09-22T09:51:26.821Z,17.20
2022-09-22T10:01:31.084Z,17.00
2022-09-22T10:11:36.724Z,17.60
2022-09-22T10:21:39.385Z,18.00
2022-09-22T10:31:45.044Z,18.30
2022-09-22T10:41:51.863Z,18.00
2022-09-22T10:52:00.680Z,18.20
2022-09-22T11:02:24.124Z,18.70
2022-09-22T11:12:46.642Z,18.50
2022-09-22T11:23:01.022Z,19.00
2022-09-22T11:33:23.619Z,18.70
2022-09-22T11:43:46.683Z,19.50
2022-09-22T11:53:57.069Z,19.60
2022-09-22T12:04:24.021Z,19.30
2022-09-22T12:14:26.663Z,19.60
2022-09-22T12:24:28.880Z,19.80
2022-09-22T12:34:44.442Z,20.30
2022-09-22T12:45:14.679Z,20.60
2022-09-22T12:55:24.624Z,21.20
2022-09-22T13:05:29.006Z,22.20
2022-09-22T13:15:34.326Z,21.80
2022-09-22T13:25:35.627Z,22.20
2022-09-22T13:35:43.770Z,22.50
2022-09-22T13:45:50.489Z,22.50
2022-09-22T13:55:53.341Z,22.20
2022-09-22T14:05:56.701Z,21.90
2022-09-22T14:15:59.084Z,21.00
2022-09-22T14:26:05.622Z,21.10
2022-09-22T14:36:23.944Z,21.10
2022-09-22T14:46:43.901Z,20.30
2022-09-22T14:56:46.923Z,20.50
2022-09-22T15:06:50.222Z,20.40
2022-09-22T15:16:52.626Z,20.20
2022-09-22T15:26:59.408Z,20.00
2022-09-22T15:37:01.130Z,19.90
2022-09-22T15:47:02.848Z,19.70
2022-09-22T15:57:07.033Z,19.40
2022-09-22T16:07:13.880Z,19.10
2022-09-22T16:17:15.581Z,18.90
2022-09-22T16:27:17.299Z,18.60
2022-09-22T16:37:19.626Z,18.20
2022-09-22T16:47:23.781Z,17.80
2022-09-22T16:57:25.137Z,17.40
2022-09-22T17:07:27.182Z,17.00
2022-09-22T17:17:28.580Z,16.50
2022-09-22T17:27:29.920Z,16.00
2022-09-22T17:37:32.038Z,15.50
2022-09-22T17:47:52.175Z,15.20
2022-09-22T17:57:54.454Z,14.80
2022-09-22T18:08:00.086Z,14.50
2022-09-22T18:18:01.605Z,14.20
2022-09-22T18:28:04.022Z,14.10
2022-09-22T18:38:05.941Z,13.90
2022-09-22T18:48:07.565Z,13.70
2022-09-22T18:58:09.121Z,13.50
2022-09-22T19:08:14.047Z,13.30
2022-09-22T19:18:15.603Z,13.30
2022-09-22T19:28:17.540Z,13.10
2022-09-22T19:38:19.939Z,13.10
2022-09-22T19:48:22.005Z,13.00
2022-09-22T19:58:24.303Z,12.80
2022-09-22T20:08:28.319Z,12.70
2022-09-22T20:18:31.836Z,12.70
2022-09-22T20:28:33.684Z,12.60
2022-09-22T20:38:35.316Z,12.60
2022-09-22T20:48:36.840Z,12.50
2022-09-22T20:58:45.463Z,12.50
2022-09-22T21:09:06.747Z,12.40
2022-09-22T21:19:09.361Z,12.30
2022-09-22T21:29:12.164Z,12.20
2022-09-22T21:39:13.700Z,12.00
2022-09-22T21:49:15.108Z,11.80
2022-09-22T21:59:16.900Z,11.50
2022-09-22T22:09:25.437Z,11.50
2022-09-22T22:19:28.598Z,11.30
2022-09-22T22:29:34.218Z,11.20
2022-09-22T22:39:35.603Z,11.10
2022-09-22T22:49:36.980Z,11.00
2022-09-22T22:59:38.340Z,10.80
2022-09-22T23:09:39.878Z,10.60
2022-09-22T23:19:42.716Z,10.50
2022-09-22T23:29:44.185Z,10.50
2022-09-22T23:39:45.358Z,10.60
2022-09-22T23:49:47.916Z,10.40
2022-09-22T23:59:49.099Z,10.20
